sensor_id;sensor_type;location;lat;lon;timestamp;P1;durP1;ratioP1;P2;durP2;ratioP2
67867;SDS011;54672;46.096;14.470;2023-04-25T00:01:19;14.15;;;6.95;;
67867;SDS011;54672;46.096;14.470;2023-04-25T00:03:46;12.90;;;7.28;;
67867;SDS011;54672;46.096;14.470;2023-04-25T00:06:12;17.02;;;8.90;;
67867;SDS011;54672;46.096;14.470;2023-04-25T00:08:37;16.83;;;7.93;;
67867;SDS011;54672;46.096;14.470;2023-04-25T00:11:03;16.83;;;9.10;;
67867;SDS011;54672;46.096;14.470;2023-04-25T00:13:29;19.35;;;9.20;;
67867;SDS011;54672;46.096;14.470;2023-04-25T00:15:55;25.73;;;10.93;;
67867;SDS011;54672;46.096;14.470;2023-04-25T00:18:21;20.65;;;9.93;;
67867;SDS011;54672;46.096;14.470;2023-04-25T00:20:47;23.30;;;10.50;;
67867;SDS011;54672;46.096;14.470;2023-04-25T00:23:13;23.25;;;9.98;;
67867;SDS011;54672;46.096;14.470;2023-04-25T00:25:46;21.08;;;9.38;;
67867;SDS011;54672;46.096;14.470;2023-04-25T00:28:13;22.17;;;10.55;;
67867;SDS011;54672;46.096;14.470;2023-04-25T00:30:38;20.92;;;9.55;;
67867;SDS011;54672;46.096;14.470;2023-04-25T00:33:05;22.60;;;10.25;;
67867;SDS011;54672;46.096;14.470;2023-04-25T00:35:31;22.13;;;10.68;;
67867;SDS011;54672;46.096;14.470;2023-04-25T00:37:56;23.40;;;11.07;;
67867;SDS011;54672;46.096;14.470;2023-04-25T00:40:21;24.80;;;11.20;;
67867;SDS011;54672;46.096;14.470;2023-04-25T00:42:47;23.50;;;11.07;;
67867;SDS011;54672;46.096;14.470;2023-04-25T00:45:13;25.55;;;10.40;;
67867;SDS011;54672;46.096;14.470;2023-04-25T00:47:42;25.50;;;10.20;;
67867;SDS011;54672;46.096;14.470;2023-04-25T00:50:08;25.50;;;11.07;;
67867;SDS011;54672;46.096;14.470;2023-04-25T00:52:34;22.50;;;10.02;;
67867;SDS011;54672;46.096;14.470;2023-04-25T00:55:00;22.88;;;11.07;;
67867;SDS011;54672;46.096;14.470;2023-04-25T00:57:26;21.70;;;10.38;;
67867;SDS011;54672;46.096;14.470;2023-04-25T00:59:52;23.45;;;10.60;;
67867;SDS011;54672;46.096;14.470;2023-04-25T01:02:18;25.75;;;11.23;;
67867;SDS011;54672;46.096;14.470;2023-04-25T01:04:45;28.98;;;12.07;;
67867;SDS011;54672;46.096;14.470;2023-04-25T01:07:12;25.05;;;10.85;;
67867;SDS011;54672;46.096;14.470;2023-04-25T01:09:38;22.42;;;10.55;;
67867;SDS011;54672;46.096;14.470;2023-04-25T01:12:04;26.67;;;11.18;;
67867;SDS011;54672;46.096;14.470;2023-04-25T01:14:29;21.70;;;10.45;;
67867;SDS011;54672;46.096;14.470;2023-04-25T01:16:55;22.55;;;10.77;;
67867;SDS011;54672;46.096;14.470;2023-04-25T01:19:20;21.50;;;10.43;;
67867;SDS011;54672;46.096;14.470;2023-04-25T01:21:46;24.83;;;11.32;;
67867;SDS011;54672;46.096;14.470;2023-04-25T01:24:12;23.17;;;10.70;;
67867;SDS011;54672;46.096;14.470;2023-04-25T01:26:37;21.83;;;9.82;;
67867;SDS011;54672;46.096;14.470;2023-04-25T01:29:05;23.27;;;11.35;;
67867;SDS011;54672;46.096;14.470;2023-04-25T01:31:32;25.65;;;11.40;;
67867;SDS011;54672;46.096;14.470;2023-04-25T01:34:00;25.52;;;10.90;;
67867;SDS011;54672;46.096;14.470;2023-04-25T01:36:25;30.40;;;12.00;;
67867;SDS011;54672;46.096;14.470;2023-04-25T01:38:52;27.45;;;12.02;;
67867;SDS011;54672;46.096;14.470;2023-04-25T01:41:17;26.13;;;11.82;;
67867;SDS011;54672;46.096;14.470;2023-04-25T01:43:43;27.17;;;12.43;;
67867;SDS011;54672;46.096;14.470;2023-04-25T01:46:09;24.77;;;11.45;;
67867;SDS011;54672;46.096;14.470;2023-04-25T01:48:36;24.85;;;11.30;;
67867;SDS011;54672;46.096;14.470;2023-04-25T01:51:02;24.38;;;11.15;;
67867;SDS011;54672;46.096;14.470;2023-04-25T01:53:27;23.63;;;10.23;;
67867;SDS011;54672;46.096;14.470;2023-04-25T01:55:53;25.25;;;11.15;;
67867;SDS011;54672;46.096;14.470;2023-04-25T01:58:18;29.13;;;11.77;;
67867;SDS011;54672;46.096;14.470;2023-04-25T02:00:44;24.10;;;10.55;;
67867;SDS011;54672;46.096;14.470;2023-04-25T02:03:09;22.52;;;10.80;;
67867;SDS011;54672;46.096;14.470;2023-04-25T02:05:38;27.60;;;11.27;;
67867;SDS011;54672;46.096;14.470;2023-04-25T02:08:08;25.33;;;11.80;;
67867;SDS011;54672;46.096;14.470;2023-04-25T02:10:34;24.23;;;10.70;;
67867;SDS011;54672;46.096;14.470;2023-04-25T02:13:00;25.33;;;11.15;;
67867;SDS011;54672;46.096;14.470;2023-04-25T02:15:26;24.35;;;10.60;;
67867;SDS011;54672;46.096;14.470;2023-04-25T02:17:51;25.48;;;11.23;;
67867;SDS011;54672;46.096;14.470;2023-04-25T02:20:18;27.15;;;13.00;;
67867;SDS011;54672;46.096;14.470;2023-04-25T02:22:45;26.60;;;11.73;;
67867;SDS011;54672;46.096;14.470;2023-04-25T02:25:11;28.30;;;12.02;;
67867;SDS011;54672;46.096;14.470;2023-04-25T02:27:36;28.20;;;12.15;;
67867;SDS011;54672;46.096;14.470;2023-04-25T02:30:02;28.42;;;12.23;;
67867;SDS011;54672;46.096;14.470;2023-04-25T02:32:29;23.83;;;11.60;;
67867;SDS011;54672;46.096;14.470;2023-04-25T02:34:55;29.75;;;11.90;;
67867;SDS011;54672;46.096;14.470;2023-04-25T02:37:23;28.40;;;11.68;;
67867;SDS011;54672;46.096;14.470;2023-04-25T02:39:49;29.15;;;12.50;;
67867;SDS011;54672;46.096;14.470;2023-04-25T02:42:14;23.85;;;10.90;;
67867;SDS011;54672;46.096;14.470;2023-04-25T02:44:40;25.23;;;11.02;;
67867;SDS011;54672;46.096;14.470;2023-04-25T02:47:05;22.42;;;11.32;;
67867;SDS011;54672;46.096;14.470;2023-04-25T02:49:31;24.98;;;11.40;;
67867;SDS011;54672;46.096;14.470;2023-04-25T02:51:56;23.60;;;10.55;;
67867;SDS011;54672;46.096;14.470;2023-04-25T02:54:21;23.52;;;10.80;;
67867;SDS011;54672;46.096;14.470;2023-04-25T02:56:47;23.80;;;10.50;;
67867;SDS011;54672;46.096;14.470;2023-04-25T02:59:12;27.48;;;10.73;;
67867;SDS011;54672;46.096;14.470;2023-04-25T03:01:38;22.15;;;10.45;;
67867;SDS011;54672;46.096;14.470;2023-04-25T03:04:03;26.08;;;11.60;;
67867;SDS011;54672;46.096;14.470;2023-04-25T03:06:29;23.13;;;10.48;;
67867;SDS011;54672;46.096;14.470;2023-04-25T03:08:55;28.33;;;12.23;;
67867;SDS011;54672;46.096;14.470;2023-04-25T03:11:21;26.45;;;10.40;;
67867;SDS011;54672;46.096;14.470;2023-04-25T03:13:46;26.98;;;11.73;;
67867;SDS011;54672;46.096;14.470;2023-04-25T03:16:12;24.15;;;11.25;;
67867;SDS011;54672;46.096;14.470;2023-04-25T03:18:37;26.45;;;10.45;;
67867;SDS011;54672;46.096;14.470;2023-04-25T03:21:02;27.23;;;11.75;;
67867;SDS011;54672;46.096;14.470;2023-04-25T03:23:28;23.00;;;10.68;;
67867;SDS011;54672;46.096;14.470;2023-04-25T03:25:53;28.58;;;11.13;;
67867;SDS011;54672;46.096;14.470;2023-04-25T03:28:19;26.75;;;11.90;;
67867;SDS011;54672;46.096;14.470;2023-04-25T03:30:45;21.95;;;10.82;;
67867;SDS011;54672;46.096;14.470;2023-04-25T03:33:10;23.25;;;10.50;;
67867;SDS011;54672;46.096;14.470;2023-04-25T03:35:36;24.95;;;10.77;;
67867;SDS011;54672;46.096;14.470;2023-04-25T03:38:01;25.27;;;10.23;;
67867;SDS011;54672;46.096;14.470;2023-04-25T03:40:27;20.45;;;9.60;;
67867;SDS011;54672;46.096;14.470;2023-04-25T03:42:52;22.58;;;10.70;;
67867;SDS011;54672;46.096;14.470;2023-04-25T03:45:17;21.77;;;9.98;;
67867;SDS011;54672;46.096;14.470;2023-04-25T03:47:43;20.95;;;9.75;;
67867;SDS011;54672;46.096;14.470;2023-04-25T03:50:08;21.65;;;10.30;;
67867;SDS011;54672;46.096;14.470;2023-04-25T03:52:35;24.42;;;10.02;;
67867;SDS011;54672;46.096;14.470;2023-04-25T03:55:00;18.38;;;8.48;;
67867;SDS011;54672;46.096;14.470;2023-04-25T03:57:26;18.65;;;7.78;;
67867;SDS011;54672;46.096;14.470;2023-04-25T03:59:51;14.35;;;7.07;;
67867;SDS011;54672;46.096;14.470;2023-04-25T04:02:17;16.17;;;7.68;;
67867;SDS011;54672;46.096;14.470;2023-04-25T04:04:42;17.48;;;7.78;;
67867;SDS011;54672;46.096;14.470;2023-04-25T04:07:09;16.88;;;7.65;;
67867;SDS011;54672;46.096;14.470;2023-04-25T04:09:35;17.10;;;7.32;;
67867;SDS011;54672;46.096;14.470;2023-04-25T04:12:00;16.63;;;7.38;;
67867;SDS011;54672;46.096;14.470;2023-04-25T04:14:27;15.77;;;6.72;;
67867;SDS011;54672;46.096;14.470;2023-04-25T04:16:53;16.35;;;7.03;;
67867;SDS011;54672;46.096;14.470;2023-04-25T04:19:18;17.20;;;7.00;;
67867;SDS011;54672;46.096;14.470;2023-04-25T04:21:44;16.88;;;7.20;;
67867;SDS011;54672;46.096;14.470;2023-04-25T04:24:09;16.35;;;7.50;;
67867;SDS011;54672;46.096;14.470;2023-04-25T04:26:35;18.05;;;8.25;;
67867;SDS011;54672;46.096;14.470;2023-04-25T04:29:02;18.20;;;7.93;;
67867;SDS011;54672;46.096;14.470;2023-04-25T04:31:27;19.35;;;7.93;;
67867;SDS011;54672;46.096;14.470;2023-04-25T04:33:54;12.45;;;6.97;;
67867;SDS011;54672;46.096;14.470;2023-04-25T04:36:20;14.32;;;7.13;;
67867;SDS011;54672;46.096;14.470;2023-04-25T04:38:47;13.27;;;6.28;;
67867;SDS011;54672;46.096;14.470;2023-04-25T04:41:12;13.65;;;6.32;;
67867;SDS011;54672;46.096;14.470;2023-04-25T04:43:38;13.18;;;5.93;;
67867;SDS011;54672;46.096;14.470;2023-04-25T04:46:04;9.68;;;4.88;;
67867;SDS011;54672;46.096;14.470;2023-04-25T04:48:33;8.38;;;4.55;;
67867;SDS011;54672;46.096;14.470;2023-04-25T04:50:59;10.18;;;4.60;;
67867;SDS011;54672;46.096;14.470;2023-04-25T04:53:25;9.68;;;5.18;;
67867;SDS011;54672;46.096;14.470;2023-04-25T04:55:51;12.32;;;5.18;;
67867;SDS011;54672;46.096;14.470;2023-04-25T04:58:16;8.45;;;4.25;;
67867;SDS011;54672;46.096;14.470;2023-04-25T05:00:42;8.27;;;4.30;;
67867;SDS011;54672;46.096;14.470;2023-04-25T05:03:07;9.48;;;4.90;;
67867;SDS011;54672;46.096;14.470;2023-04-25T05:05:32;9.40;;;4.85;;
67867;SDS011;54672;46.096;14.470;2023-04-25T05:07:58;7.60;;;4.25;;
67867;SDS011;54672;46.096;14.470;2023-04-25T05:10:23;9.13;;;4.63;;
67867;SDS011;54672;46.096;14.470;2023-04-25T05:12:49;9.27;;;4.15;;
67867;SDS011;54672;46.096;14.470;2023-04-25T05:15:14;11.07;;;4.28;;
67867;SDS011;54672;46.096;14.470;2023-04-25T05:17:40;10.02;;;4.00;;
67867;SDS011;54672;46.096;14.470;2023-04-25T05:20:06;8.63;;;4.30;;
67867;SDS011;54672;46.096;14.470;2023-04-25T05:22:33;9.50;;;4.70;;
67867;SDS011;54672;46.096;14.470;2023-04-25T05:24:59;8.93;;;4.70;;
67867;SDS011;54672;46.096;14.470;2023-04-25T05:27:25;10.18;;;4.47;;
67867;SDS011;54672;46.096;14.470;2023-04-25T05:29:50;8.90;;;5.32;;
67867;SDS011;54672;46.096;14.470;2023-04-25T05:32:16;9.18;;;4.97;;
67867;SDS011;54672;46.096;14.470;2023-04-25T05:34:42;10.30;;;5.30;;
67867;SDS011;54672;46.096;14.470;2023-04-25T05:37:08;9.98;;;5.15;;
67867;SDS011;54672;46.096;14.470;2023-04-25T05:39:33;9.02;;;5.13;;
67867;SDS011;54672;46.096;14.470;2023-04-25T05:41:58;11.15;;;5.78;;
67867;SDS011;54672;46.096;14.470;2023-04-25T05:44:24;12.98;;;5.90;;
67867;SDS011;54672;46.096;14.470;2023-04-25T05:46:49;10.38;;;5.75;;
67867;SDS011;54672;46.096;14.470;2023-04-25T05:49:15;10.90;;;5.63;;
67867;SDS011;54672;46.096;14.470;2023-04-25T05:51:41;11.82;;;5.45;;
67867;SDS011;54672;46.096;14.470;2023-04-25T05:54:06;11.15;;;6.20;;
67867;SDS011;54672;46.096;14.470;2023-04-25T05:56:31;12.85;;;5.75;;
67867;SDS011;54672;46.096;14.470;2023-04-25T05:58:57;12.35;;;6.88;;
67867;SDS011;54672;46.096;14.470;2023-04-25T06:01:22;14.10;;;6.45;;
67867;SDS011;54672;46.096;14.470;2023-04-25T06:03:48;13.38;;;6.60;;
67867;SDS011;54672;46.096;14.470;2023-04-25T06:06:14;12.00;;;6.65;;
67867;SDS011;54672;46.096;14.470;2023-04-25T06:08:40;14.20;;;6.70;;
67867;SDS011;54672;46.096;14.470;2023-04-25T06:11:06;13.38;;;6.60;;
67867;SDS011;54672;46.096;14.470;2023-04-25T06:13:31;12.15;;;6.82;;
67867;SDS011;54672;46.096;14.470;2023-04-25T06:15:57;12.30;;;5.88;;
67867;SDS011;54672;46.096;14.470;2023-04-25T06:18:22;13.50;;;7.40;;
67867;SDS011;54672;46.096;14.470;2023-04-25T06:20:48;13.32;;;7.28;;
67867;SDS011;54672;46.096;14.470;2023-04-25T06:23:13;11.93;;;6.40;;
67867;SDS011;54672;46.096;14.470;2023-04-25T06:25:38;12.68;;;6.82;;
67867;SDS011;54672;46.096;14.470;2023-04-25T06:28:04;12.82;;;6.93;;
67867;SDS011;54672;46.096;14.470;2023-04-25T06:30:29;12.82;;;6.75;;
67867;SDS011;54672;46.096;14.470;2023-04-25T06:32:55;13.68;;;7.43;;
67867;SDS011;54672;46.096;14.470;2023-04-25T06:35:20;13.25;;;6.72;;
67867;SDS011;54672;46.096;14.470;2023-04-25T06:37:46;13.45;;;6.68;;
67867;SDS011;54672;46.096;14.470;2023-04-25T06:40:11;13.43;;;7.55;;
67867;SDS011;54672;46.096;14.470;2023-04-25T06:42:37;12.02;;;6.50;;
67867;SDS011;54672;46.096;14.470;2023-04-25T06:45:02;11.38;;;6.47;;
67867;SDS011;54672;46.096;14.470;2023-04-25T06:47:28;10.15;;;6.28;;
67867;SDS011;54672;46.096;14.470;2023-04-25T06:49:54;9.80;;;5.50;;
67867;SDS011;54672;46.096;14.470;2023-04-25T06:52:20;9.80;;;5.78;;
67867;SDS011;54672;46.096;14.470;2023-04-25T06:54:46;13.77;;;5.68;;
67867;SDS011;54672;46.096;14.470;2023-04-25T06:57:11;9.48;;;5.72;;
67867;SDS011;54672;46.096;14.470;2023-04-25T06:59:37;10.15;;;5.47;;
67867;SDS011;54672;46.096;14.470;2023-04-25T07:02:02;11.73;;;5.65;;
67867;SDS011;54672;46.096;14.470;2023-04-25T07:04:28;8.65;;;5.32;;
67867;SDS011;54672;46.096;14.470;2023-04-25T07:06:54;10.48;;;5.90;;
67867;SDS011;54672;46.096;14.470;2023-04-25T07:09:20;12.25;;;5.68;;
67867;SDS011;54672;46.096;14.470;2023-04-25T07:11:45;9.95;;;5.88;;
67867;SDS011;54672;46.096;14.470;2023-04-25T07:14:11;9.60;;;6.10;;
67867;SDS011;54672;46.096;14.470;2023-04-25T07:16:36;12.70;;;5.55;;
67867;SDS011;54672;46.096;14.470;2023-04-25T07:19:02;9.45;;;5.30;;
67867;SDS011;54672;46.096;14.470;2023-04-25T07:21:27;11.15;;;5.93;;
67867;SDS011;54672;46.096;14.470;2023-04-25T07:23:53;11.80;;;6.22;;
67867;SDS011;54672;46.096;14.470;2023-04-25T07:26:18;10.10;;;6.18;;
67867;SDS011;54672;46.096;14.470;2023-04-25T07:28:43;12.43;;;6.35;;
67867;SDS011;54672;46.096;14.470;2023-04-25T07:31:09;9.85;;;5.95;;
67867;SDS011;54672;46.096;14.470;2023-04-25T07:33:34;10.68;;;5.82;;
67867;SDS011;54672;46.096;14.470;2023-04-25T07:36:00;9.30;;;6.15;;
67867;SDS011;54672;46.096;14.470;2023-04-25T07:38:25;10.45;;;5.25;;
67867;SDS011;54672;46.096;14.470;2023-04-25T07:40:51;10.30;;;5.95;;
67867;SDS011;54672;46.096;14.470;2023-04-25T07:43:17;12.02;;;5.90;;
67867;SDS011;54672;46.096;14.470;2023-04-25T07:45:42;10.65;;;6.00;;
67867;SDS011;54672;46.096;14.470;2023-04-25T07:48:08;11.38;;;5.95;;
67867;SDS011;54672;46.096;14.470;2023-04-25T07:50:35;10.00;;;5.80;;
67867;SDS011;54672;46.096;14.470;2023-04-25T07:53:00;10.52;;;5.28;;
67867;SDS011;54672;46.096;14.470;2023-04-25T07:55:26;9.73;;;6.05;;
67867;SDS011;54672;46.096;14.470;2023-04-25T07:57:51;10.07;;;5.70;;
67867;SDS011;54672;46.096;14.470;2023-04-25T08:00:17;10.27;;;6.25;;
67867;SDS011;54672;46.096;14.470;2023-04-25T08:02:42;8.77;;;5.57;;
67867;SDS011;54672;46.096;14.470;2023-04-25T08:05:08;8.98;;;5.53;;
67867;SDS011;54672;46.096;14.470;2023-04-25T08:07:36;11.93;;;6.40;;
67867;SDS011;54672;46.096;14.470;2023-04-25T08:10:04;9.57;;;5.50;;
67867;SDS011;54672;46.096;14.470;2023-04-25T08:12:30;8.88;;;5.47;;
67867;SDS011;54672;46.096;14.470;2023-04-25T08:14:56;7.63;;;5.20;;
67867;SDS011;54672;46.096;14.470;2023-04-25T08:17:21;8.77;;;5.65;;
67867;SDS011;54672;46.096;14.470;2023-04-25T08:19:46;10.18;;;5.55;;
67867;SDS011;54672;46.096;14.470;2023-04-25T08:22:12;10.07;;;5.47;;
67867;SDS011;54672;46.096;14.470;2023-04-25T08:24:37;7.38;;;4.95;;
67867;SDS011;54672;46.096;14.470;2023-04-25T08:27:03;8.85;;;4.72;;
67867;SDS011;54672;46.096;14.470;2023-04-25T08:29:28;8.43;;;5.25;;
67867;SDS011;54672;46.096;14.470;2023-04-25T08:31:54;7.32;;;4.90;;
67867;SDS011;54672;46.096;14.470;2023-04-25T08:34:19;7.40;;;4.47;;
67867;SDS011;54672;46.096;14.470;2023-04-25T08:36:45;8.68;;;5.22;;
67867;SDS011;54672;46.096;14.470;2023-04-25T08:39:11;8.75;;;4.72;;
67867;SDS011;54672;46.096;14.470;2023-04-25T08:41:37;6.03;;;4.20;;
67867;SDS011;54672;46.096;14.470;2023-04-25T08:44:03;7.18;;;4.50;;
67867;SDS011;54672;46.096;14.470;2023-04-25T08:46:29;8.40;;;4.55;;
67867;SDS011;54672;46.096;14.470;2023-04-25T08:48:58;7.47;;;4.53;;
67867;SDS011;54672;46.096;14.470;2023-04-25T08:51:26;5.90;;;4.22;;
67867;SDS011;54672;46.096;14.470;2023-04-25T08:53:56;7.00;;;4.93;;
67867;SDS011;54672;46.096;14.470;2023-04-25T08:56:38;5.82;;;3.83;;
67867;SDS011;54672;46.096;14.470;2023-04-25T08:59:06;6.55;;;4.10;;
67867;SDS011;54672;46.096;14.470;2023-04-25T09:01:33;8.40;;;3.80;;
67867;SDS011;54672;46.096;14.470;2023-04-25T09:04:00;5.95;;;3.97;;
67867;SDS011;54672;46.096;14.470;2023-04-25T09:06:27;8.88;;;4.05;;
67867;SDS011;54672;46.096;14.470;2023-04-25T09:08:53;4.88;;;3.33;;
67867;SDS011;54672;46.096;14.470;2023-04-25T09:11:19;6.55;;;3.63;;
67867;SDS011;54672;46.096;14.470;2023-04-25T09:13:44;6.30;;;3.40;;
67867;SDS011;54672;46.096;14.470;2023-04-25T09:16:10;5.65;;;3.40;;
67867;SDS011;54672;46.096;14.470;2023-04-25T09:18:36;5.97;;;3.47;;
67867;SDS011;54672;46.096;14.470;2023-04-25T09:24:07;5.18;;;3.47;;
67867;SDS011;54672;46.096;14.470;2023-04-25T09:26:25;4.78;;;3.30;;
67867;SDS011;54672;46.096;14.470;2023-04-25T09:28:57;5.35;;;3.03;;
67867;SDS011;54672;46.096;14.470;2023-04-25T09:31:31;5.03;;;3.22;;
67867;SDS011;54672;46.096;14.470;2023-04-25T09:33:58;4.70;;;3.13;;
67867;SDS011;54672;46.096;14.470;2023-04-25T09:36:26;5.57;;;3.35;;
67867;SDS011;54672;46.096;14.470;2023-04-25T09:38:52;6.50;;;3.63;;
67867;SDS011;54672;46.096;14.470;2023-04-25T09:41:22;5.60;;;3.35;;
67867;SDS011;54672;46.096;14.470;2023-04-25T09:43:50;5.93;;;3.70;;
67867;SDS011;54672;46.096;14.470;2023-04-25T09:46:15;5.15;;;3.30;;
67867;SDS011;54672;46.096;14.470;2023-04-25T09:48:47;7.05;;;3.63;;
67867;SDS011;54672;46.096;14.470;2023-04-25T09:51:15;7.10;;;3.70;;
67867;SDS011;54672;46.096;14.470;2023-04-25T09:53:41;5.05;;;2.97;;
67867;SDS011;54672;46.096;14.470;2023-04-25T09:56:09;7.07;;;3.10;;
67867;SDS011;54672;46.096;14.470;2023-04-25T09:58:36;5.05;;;3.03;;
67867;SDS011;54672;46.096;14.470;2023-04-25T10:01:04;5.80;;;3.13;;
67867;SDS011;54672;46.096;14.470;2023-04-25T10:03:32;5.55;;;3.33;;
67867;SDS011;54672;46.096;14.470;2023-04-25T10:06:00;4.18;;;2.80;;
67867;SDS011;54672;46.096;14.470;2023-04-25T10:08:36;5.05;;;2.83;;
67867;SDS011;54672;46.096;14.470;2023-04-25T10:11:03;5.88;;;3.40;;
67867;SDS011;54672;46.096;14.470;2023-04-25T10:13:30;5.85;;;3.17;;
67867;SDS011;54672;46.096;14.470;2023-04-25T10:16:00;4.50;;;3.00;;
67867;SDS011;54672;46.096;14.470;2023-04-25T10:18:29;5.50;;;3.10;;
67867;SDS011;54672;46.096;14.470;2023-04-25T10:20:57;5.28;;;3.30;;
67867;SDS011;54672;46.096;14.470;2023-04-25T10:23:24;5.10;;;2.78;;
67867;SDS011;54672;46.096;14.470;2023-04-25T10:25:51;5.20;;;3.08;;
67867;SDS011;54672;46.096;14.470;2023-04-25T10:28:18;5.10;;;3.30;;
67867;SDS011;54672;46.096;14.470;2023-04-25T10:33:29;5.03;;;2.97;;
67867;SDS011;54672;46.096;14.470;2023-04-25T10:36:09;5.28;;;3.15;;
67867;SDS011;54672;46.096;14.470;2023-04-25T10:38:40;6.22;;;3.15;;
67867;SDS011;54672;46.096;14.470;2023-04-25T10:41:08;6.05;;;3.22;;
67867;SDS011;54672;46.096;14.470;2023-04-25T10:43:35;8.52;;;3.20;;
67867;SDS011;54672;46.096;14.470;2023-04-25T10:46:03;5.70;;;3.40;;
67867;SDS011;54672;46.096;14.470;2023-04-25T10:48:48;5.20;;;3.45;;
67867;SDS011;54672;46.096;14.470;2023-04-25T10:51:18;6.28;;;3.08;;
67867;SDS011;54672;46.096;14.470;2023-04-25T10:53:45;4.38;;;2.83;;
67867;SDS011;54672;46.096;14.470;2023-04-25T10:56:31;4.20;;;2.70;;
67867;SDS011;54672;46.096;14.470;2023-04-25T11:01:37;5.00;;;2.95;;
67867;SDS011;54672;46.096;14.470;2023-04-25T11:04:04;5.05;;;3.20;;
67867;SDS011;54672;46.096;14.470;2023-04-25T11:06:46;4.50;;;2.67;;
67867;SDS011;54672;46.096;14.470;2023-04-25T11:09:35;6.20;;;2.92;;
67867;SDS011;54672;46.096;14.470;2023-04-25T11:12:03;6.85;;;3.00;;
67867;SDS011;54672;46.096;14.470;2023-04-25T11:14:28;4.72;;;2.95;;
67867;SDS011;54672;46.096;14.470;2023-04-25T11:16:54;4.85;;;2.67;;
67867;SDS011;54672;46.096;14.470;2023-04-25T11:19:21;4.70;;;2.80;;
67867;SDS011;54672;46.096;14.470;2023-04-25T11:21:47;5.15;;;2.80;;
67867;SDS011;54672;46.096;14.470;2023-04-25T11:24:12;4.90;;;2.50;;
67867;SDS011;54672;46.096;14.470;2023-04-25T11:26:38;4.93;;;2.97;;
67867;SDS011;54672;46.096;14.470;2023-04-25T11:29:06;5.00;;;3.00;;
67867;SDS011;54672;46.096;14.470;2023-04-25T11:31:31;3.92;;;2.45;;
67867;SDS011;54672;46.096;14.470;2023-04-25T11:33:56;3.38;;;2.30;;
67867;SDS011;54672;46.096;14.470;2023-04-25T11:36:26;4.13;;;2.67;;
67867;SDS011;54672;46.096;14.470;2023-04-25T11:38:52;5.28;;;2.90;;
67867;SDS011;54672;46.096;14.470;2023-04-25T11:41:18;6.78;;;2.90;;
67867;SDS011;54672;46.096;14.470;2023-04-25T11:43:47;5.22;;;2.95;;
67867;SDS011;54672;46.096;14.470;2023-04-25T11:46:13;3.58;;;2.60;;
67867;SDS011;54672;46.096;14.470;2023-04-25T11:48:39;5.22;;;2.80;;
67867;SDS011;54672;46.096;14.470;2023-04-25T11:51:05;5.57;;;2.63;;
67867;SDS011;54672;46.096;14.470;2023-04-25T11:53:31;4.20;;;2.28;;
67867;SDS011;54672;46.096;14.470;2023-04-25T11:55:56;4.40;;;2.28;;
67867;SDS011;54672;46.096;14.470;2023-04-25T11:58:22;3.88;;;2.50;;
67867;SDS011;54672;46.096;14.470;2023-04-25T12:00:47;4.97;;;2.50;;
67867;SDS011;54672;46.096;14.470;2023-04-25T12:03:13;4.97;;;2.60;;
67867;SDS011;54672;46.096;14.470;2023-04-25T12:05:38;6.65;;;2.90;;
67867;SDS011;54672;46.096;14.470;2023-04-25T12:08:14;5.22;;;2.50;;
67867;SDS011;54672;46.096;14.470;2023-04-25T12:10:43;4.05;;;2.60;;
67867;SDS011;54672;46.096;14.470;2023-04-25T12:13:23;3.55;;;2.55;;
67867;SDS011;54672;46.096;14.470;2023-04-25T12:15:50;3.65;;;2.38;;
67867;SDS011;54672;46.096;14.470;2023-04-25T12:18:19;4.60;;;2.50;;
67867;SDS011;54672;46.096;14.470;2023-04-25T12:20:53;4.60;;;2.72;;
67867;SDS011;54672;46.096;14.470;2023-04-25T12:23:28;3.70;;;2.20;;
67867;SDS011;54672;46.096;14.470;2023-04-25T12:25:55;3.75;;;2.35;;
67867;SDS011;54672;46.096;14.470;2023-04-25T12:28:21;3.08;;;2.13;;
67867;SDS011;54672;46.096;14.470;2023-04-25T12:33:24;4.93;;;2.30;;
67867;SDS011;54672;46.096;14.470;2023-04-25T12:35:51;3.90;;;2.47;;
67867;SDS011;54672;46.096;14.470;2023-04-25T12:38:37;2.88;;;1.95;;
67867;SDS011;54672;46.096;14.470;2023-04-25T12:41:06;4.10;;;2.22;;
67867;SDS011;54672;46.096;14.470;2023-04-25T12:43:32;2.80;;;2.05;;
67867;SDS011;54672;46.096;14.470;2023-04-25T12:45:58;3.55;;;2.20;;
67867;SDS011;54672;46.096;14.470;2023-04-25T12:48:24;3.20;;;2.10;;
67867;SDS011;54672;46.096;14.470;2023-04-25T12:50:50;3.40;;;2.30;;
67867;SDS011;54672;46.096;14.470;2023-04-25T12:53:17;3.80;;;2.10;;
67867;SDS011;54672;46.096;14.470;2023-04-25T12:55:46;4.93;;;2.33;;
67867;SDS011;54672;46.096;14.470;2023-04-25T12:58:12;4.32;;;2.42;;
67867;SDS011;54672;46.096;14.470;2023-04-25T13:00:41;3.00;;;1.85;;
67867;SDS011;54672;46.096;14.470;2023-04-25T13:03:08;3.40;;;2.10;;
67867;SDS011;54672;46.096;14.470;2023-04-25T13:05:34;3.60;;;2.20;;
67867;SDS011;54672;46.096;14.470;2023-04-25T13:07:59;3.38;;;2.22;;
67867;SDS011;54672;46.096;14.470;2023-04-25T13:10:25;4.45;;;2.13;;
67867;SDS011;54672;46.096;14.470;2023-04-25T13:12:50;3.30;;;1.90;;
67867;SDS011;54672;46.096;14.470;2023-04-25T13:15:16;3.90;;;2.20;;
67867;SDS011;54672;46.096;14.470;2023-04-25T13:17:42;4.70;;;2.22;;
67867;SDS011;54672;46.096;14.470;2023-04-25T13:20:07;4.75;;;1.90;;
67867;SDS011;54672;46.096;14.470;2023-04-25T13:22:37;3.63;;;2.10;;
67867;SDS011;54672;46.096;14.470;2023-04-25T13:25:04;2.88;;;1.77;;
67867;SDS011;54672;46.096;14.470;2023-04-25T13:27:30;3.13;;;2.15;;
67867;SDS011;54672;46.096;14.470;2023-04-25T13:29:57;2.75;;;1.73;;
67867;SDS011;54672;46.096;14.470;2023-04-25T13:32:23;2.65;;;1.75;;
67867;SDS011;54672;46.096;14.470;2023-04-25T13:34:48;3.92;;;1.80;;
67867;SDS011;54672;46.096;14.470;2023-04-25T13:37:14;2.75;;;1.60;;
67867;SDS011;54672;46.096;14.470;2023-04-25T13:39:40;3.42;;;1.95;;
67867;SDS011;54672;46.096;14.470;2023-04-25T13:42:05;3.65;;;1.80;;
67867;SDS011;54672;46.096;14.470;2023-04-25T13:44:31;2.88;;;1.70;;
67867;SDS011;54672;46.096;14.470;2023-04-25T13:46:56;2.35;;;1.67;;
67867;SDS011;54672;46.096;14.470;2023-04-25T13:49:22;3.72;;;1.90;;
67867;SDS011;54672;46.096;14.470;2023-04-25T13:51:48;3.65;;;2.03;;
67867;SDS011;54672;46.096;14.470;2023-04-25T13:54:13;4.20;;;2.20;;
67867;SDS011;54672;46.096;14.470;2023-04-25T13:56:38;4.25;;;1.60;;
67867;SDS011;54672;46.096;14.470;2023-04-25T13:59:06;2.58;;;1.60;;
67867;SDS011;54672;46.096;14.470;2023-04-25T14:01:32;2.40;;;1.50;;
67867;SDS011;54672;46.096;14.470;2023-04-25T14:04:00;3.72;;;2.00;;
67867;SDS011;54672;46.096;14.470;2023-04-25T14:06:25;3.13;;;1.73;;
67867;SDS011;54672;46.096;14.470;2023-04-25T14:08:52;4.75;;;1.75;;
67867;SDS011;54672;46.096;14.470;2023-04-25T14:11:19;3.10;;;1.58;;
67867;SDS011;54672;46.096;14.470;2023-04-25T14:13:44;3.00;;;1.95;;
67867;SDS011;54672;46.096;14.470;2023-04-25T14:16:10;3.13;;;1.98;;
67867;SDS011;54672;46.096;14.470;2023-04-25T14:18:35;4.65;;;1.95;;
67867;SDS011;54672;46.096;14.470;2023-04-25T14:21:01;5.45;;;2.25;;
67867;SDS011;54672;46.096;14.470;2023-04-25T14:23:26;5.40;;;2.13;;
67867;SDS011;54672;46.096;14.470;2023-04-25T14:25:52;2.90;;;1.80;;
67867;SDS011;54672;46.096;14.470;2023-04-25T14:28:17;3.20;;;2.08;;
67867;SDS011;54672;46.096;14.470;2023-04-25T14:30:43;4.68;;;2.10;;
67867;SDS011;54672;46.096;14.470;2023-04-25T14:33:08;4.38;;;2.30;;